Strona główna
METAR-TAF:

METAR-TAF

Lotnisko :

Nancy, Francja

Szerokość geograficzna: 48-35N, Długość geograficzna: 005-58E, wysokość: 336 m

Aktualna obserwacja pogody

Raport powstał 32 minut temu, godzina 11:30 UTC
Wiatr 13 kt od południowo-południowy zachód
Temperatura 12°C
Wilgotność 71%
Ciśnienie 1006 hPa
Widzialność 10 km lub więcej
Brak chmur poniżej 1500 m i brak chmur cumulonimbus

METAR: LFSO 161130Z AUTO 20013KT CAVOK 12/07 Q1006 NOSIG

czas: 13:02 (12:02 UTC)

Prognoza

Raport powstał 4 godziny i 2 minut temu, godzina 08:00 UTC
Prognoza ważna od 16 godzina 09 UTC do 17 godzina 09 UTC
Wiatr 10 kt od południe
Widzialność 10 km lub więcej
Brak chmur poniżej 1500 m i brak chmur cumulonimbus
Przejściowo
od 16 godzina 15 UTC do 16 godzina 21 UTC
Wiatr 15 kt od południe w porywach dochodzący do 25 kt
Przejściowo
od 16 godzina 21 UTC do 17 godzina 09 UTC
Wiatr 20 kt od południe w porywach dochodzący do 30 kt

TAF: LFSO 160800Z 1609/1709 19010KT CAVOK TEMPO 1615/1621 19015G25KT TEMPO 1621/1709 19020G30KT

Obserwacja i prognoza pogody dla ponad 4000 lotnisk (raport METAR i TAF).

Dostępne stacje oznaczono żółtymi i czerwonymi punktami na mapie.

Najedź kursorem aby zobaczyć nazwę stacji.

Kliknij aby zobaczyć obserwacje i prognozy pogody.

Aby zmienić mapę: kliknij na zielony przycisk z czarnym krzyżykiem, aby powiększyć; na zielony przycisk z myślnikiem, aby pomniejszyć; na zielone strzałki, aby przejść do map sąsiednich.


METAR-TAF: